createdAt,value
2022-08-28T00:00:21.222Z,72.41
2022-08-28T00:05:44.653Z,73.35
2022-08-28T00:10:50.453Z,73.74
2022-08-28T00:16:00.757Z,74.11
2022-08-28T00:21:07.944Z,74.02
2022-08-28T00:26:33.958Z,74.13
2022-08-28T00:31:40.282Z,74.62
2022-08-28T00:36:46.247Z,74.69
2022-08-28T00:41:52.751Z,74.43
2022-08-28T00:47:04.395Z,74.21
2022-08-28T00:52:12.421Z,73.22
2022-08-28T00:57:23.133Z,72.94
2022-08-28T01:02:33.275Z,73.69
2022-08-28T01:07:39.914Z,73.57
2022-08-28T01:12:47.340Z,73.74
2022-08-28T01:17:58.842Z,73.99
2022-08-28T01:23:14.225Z,73.93
2022-08-28T01:28:20.256Z,74.28
2022-08-28T01:33:27.953Z,74.62
2022-08-28T01:38:34.640Z,74.79
2022-08-28T01:43:41.902Z,74.90
2022-08-28T01:48:48.193Z,75.32
2022-08-28T01:53:54.125Z,75.59
2022-08-28T01:59:01.541Z,75.94
2022-08-28T02:04:07.943Z,76.20
2022-08-28T02:09:14.768Z,76.55
2022-08-28T02:14:22.444Z,76.92
2022-08-28T02:19:28.301Z,77.10
2022-08-28T02:24:34.079Z,77.20
2022-08-28T02:29:44.248Z,77.59
2022-08-28T02:34:50.135Z,77.80
2022-08-28T02:39:58.103Z,77.90
2022-08-28T02:45:04.558Z,78.06
2022-08-28T02:50:13.162Z,78.19
2022-08-28T02:55:20.880Z,78.42
2022-08-28T03:00:27.667Z,78.83
2022-08-28T03:05:33.448Z,78.96
2022-08-28T03:10:39.289Z,79.17
2022-08-28T03:15:45.156Z,79.54
2022-08-28T03:20:51.819Z,79.77
2022-08-28T03:26:00.736Z,80.78
2022-08-28T03:31:07.519Z,80.45
2022-08-28T03:36:16.748Z,80.19
2022-08-28T03:41:25.357Z,80.63
2022-08-28T03:46:33.184Z,80.80
2022-08-28T03:51:40.931Z,81.32
2022-08-28T03:56:47.310Z,81.49
2022-08-28T04:01:53.469Z,81.44
2022-08-28T04:06:59.198Z,81.66
2022-08-28T04:12:06.899Z,81.75
2022-08-28T04:17:13.294Z,81.75
2022-08-28T04:22:19.551Z,81.75
2022-08-28T04:27:25.457Z,81.19
2022-08-28T04:32:33.530Z,80.41
2022-08-28T04:37:40.246Z,80.08
2022-08-28T04:42:47.480Z,79.29
2022-08-28T04:47:54.168Z,74.53
2022-08-28T04:53:00.094Z,69.44
2022-08-28T04:58:06.190Z,65.83
2022-08-28T05:03:13.871Z,61.50
2022-08-28T05:08:23.327Z,57.58
2022-08-28T05:13:29.393Z,53.96
2022-08-28T05:18:35.947Z,53.54
2022-08-28T05:23:42.238Z,51.50
2022-08-28T05:28:48.382Z,49.29
2022-08-28T05:33:55.204Z,47.32
2022-08-28T05:39:04.841Z,42.84
2022-08-28T05:44:13.393Z,40.23
2022-08-28T05:49:20.181Z,38.20
2022-08-28T05:54:29.011Z,35.23
2022-08-28T05:59:33.491Z,33.06
2022-08-28T06:04:40.563Z,31.97
2022-08-28T06:09:46.729Z,30.04
2022-08-28T06:14:52.879Z,28.94
2022-08-28T06:20:01.980Z,27.27
2022-08-28T06:25:15.631Z,27.19
2022-08-28T06:30:37.413Z,26.56
2022-08-28T06:35:49.304Z,26.48
2022-08-28T06:40:56.779Z,26.02
2022-08-28T06:46:02.694Z,24.40
2022-08-28T06:51:11.271Z,23.65
2022-08-28T06:56:40.558Z,23.55
2022-08-28T07:01:56.936Z,22.90
2022-08-28T07:07:31.541Z,22.49
2022-08-28T07:13:11.154Z,22.31
2022-08-28T07:18:30.034Z,21.50
2022-08-28T07:23:50.639Z,21.75
2022-08-28T07:29:30.962Z,21.16
2022-08-28T07:34:59.919Z,21.28
2022-08-28T07:40:41.342Z,20.97
2022-08-28T07:46:16.455Z,20.37
2022-08-28T07:51:32.137Z,18.77
2022-08-28T07:56:45.034Z,19.14
2022-08-28T08:02:23.704Z,18.31
2022-08-28T08:07:36.406Z,18.51
2022-08-28T08:12:47.199Z,19.09
2022-08-28T08:18:10.408Z,18.09
2022-08-28T08:23:24.141Z,18.43
2022-08-28T08:28:32.779Z,18.30
2022-08-28T08:33:44.660Z,17.81
2022-08-28T08:38:59.507Z,17.71
2022-08-28T08:44:21.459Z,17.51
2022-08-28T08:49:34.458Z,17.73
2022-08-28T08:54:44.646Z,17.27
2022-08-28T08:59:50.810Z,17.28
2022-08-28T09:05:01.694Z,17.45
2022-08-28T09:10:12.266Z,17.61
2022-08-28T09:15:27.547Z,17.20
2022-08-28T09:20:33.654Z,16.80
2022-08-28T09:25:52.816Z,16.39
2022-08-28T09:31:03.078Z,17.50
2022-08-28T09:36:31.846Z,17.90
2022-08-28T09:42:03.066Z,17.24
2022-08-28T09:47:46.509Z,17.27
2022-08-28T09:52:55.401Z,17.65
2022-08-28T09:58:01.636Z,18.27
2022-08-28T10:03:14.642Z,18.52
2022-08-28T10:08:38.499Z,18.44
2022-08-28T10:13:53.483Z,18.52
2022-08-28T10:19:10.061Z,16.92
2022-08-28T10:24:30.446Z,18.71
2022-08-28T10:29:49.473Z,19.27
2022-08-28T10:35:06.117Z,19.31
2022-08-28T10:40:14.350Z,19.01
2022-08-28T10:45:23.977Z,19.04
2022-08-28T10:50:40.831Z,19.23
2022-08-28T10:55:54.094Z,18.03
2022-08-28T11:01:06.629Z,19.04
2022-08-28T11:06:22.982Z,18.97
2022-08-28T11:11:48.658Z,18.91
2022-08-28T11:16:56.899Z,19.92
2022-08-28T11:22:10.338Z,21.02
2022-08-28T11:27:29.415Z,20.99
2022-08-28T11:32:59.792Z,22.79
2022-08-28T11:38:07.219Z,22.90
2022-08-28T11:43:34.870Z,22.48
2022-08-28T11:48:58.552Z,21.41
2022-08-28T11:54:19.852Z,22.28
2022-08-28T11:59:49.539Z,22.52
2022-08-28T12:04:55.414Z,22.97
2022-08-28T12:10:04.942Z,24.41
2022-08-28T12:15:33.483Z,23.94
2022-08-28T12:20:57.797Z,24.56
2022-08-28T12:26:05.737Z,25.42
2022-08-28T12:31:52.342Z,25.63
2022-08-28T12:37:00.152Z,25.93
2022-08-28T12:42:14.758Z,26.69
2022-08-28T12:47:23.739Z,27.23
2022-08-28T12:52:32.262Z,27.92
2022-08-28T12:57:46.722Z,28.80
2022-08-28T13:02:55.038Z,28.66
2022-08-28T13:08:03.793Z,27.21
2022-08-28T13:13:18.551Z,25.61
2022-08-28T13:18:47.425Z,26.55
2022-08-28T13:23:55.394Z,25.32
2022-08-28T13:29:05.034Z,25.35
2022-08-28T13:34:26.948Z,27.24
2022-08-28T13:39:34.541Z,27.22
2022-08-28T13:44:53.212Z,28.05
2022-08-28T13:59:44.539Z,30.91
2022-08-28T14:05:24.239Z,30.63
2022-08-28T14:10:30.827Z,30.80
2022-08-28T14:15:36.974Z,31.27
2022-08-28T14:20:42.920Z,31.80
2022-08-28T14:25:49.621Z,32.75
2022-08-28T14:30:56.914Z,34.17
2022-08-28T14:36:03.649Z,35.12
2022-08-28T14:41:11.259Z,35.42
2022-08-28T14:46:19.953Z,36.83
2022-08-28T14:51:27.302Z,40.62
2022-08-28T14:56:35.346Z,42.21
2022-08-28T15:01:43.731Z,44.65
2022-08-28T15:06:55.003Z,48.91
2022-08-28T15:12:02.775Z,47.65
2022-08-28T15:17:09.869Z,45.05
2022-08-28T15:22:20.059Z,47.01
2022-08-28T15:27:37.628Z,49.75
2022-08-28T15:32:49.952Z,48.96
2022-08-28T15:37:57.691Z,49.58
2022-08-28T15:43:05.699Z,50.90
2022-08-28T15:48:13.222Z,51.92
2022-08-28T15:53:19.355Z,55.29
2022-08-28T15:58:26.747Z,56.94
2022-08-28T16:03:35.670Z,58.82
2022-08-28T16:08:42.274Z,58.90
2022-08-28T16:13:48.671Z,58.48
2022-08-28T16:18:54.546Z,61.24
2022-08-28T16:24:01.373Z,61.54
2022-08-28T16:29:07.651Z,62.08
2022-08-28T16:34:14.040Z,63.10
2022-08-28T16:39:21.005Z,64.78
2022-08-28T16:44:27.814Z,63.32
2022-08-28T16:49:33.675Z,62.69
2022-08-28T16:54:48.512Z,63.18
2022-08-28T16:59:55.449Z,63.94
2022-08-28T17:05:01.987Z,64.59
2022-08-28T17:10:12.348Z,65.06
2022-08-28T17:15:18.568Z,65.58
2022-08-28T17:20:43.453Z,66.85
2022-08-28T17:25:49.623Z,68.33
2022-08-28T17:30:55.686Z,69.30
2022-08-28T17:36:01.691Z,70.40
2022-08-28T17:41:08.170Z,71.43
2022-08-28T17:46:14.440Z,72.51
2022-08-28T17:51:20.228Z,73.13
2022-08-28T17:56:39.410Z,73.02
2022-08-28T18:01:46.906Z,69.99
2022-08-28T18:06:54.514Z,66.45
2022-08-28T18:12:01.208Z,64.85
2022-08-28T18:17:09.182Z,64.09
2022-08-28T18:22:15.851Z,63.92
2022-08-28T18:27:22.062Z,64.11
2022-08-28T18:32:28.615Z,64.20
2022-08-28T18:37:34.593Z,64.29
2022-08-28T18:42:40.722Z,64.36
2022-08-28T18:47:47.404Z,64.83
2022-08-28T18:52:55.079Z,64.80
2022-08-28T18:58:02.797Z,65.00
2022-08-28T19:03:09.515Z,65.63
2022-08-28T19:08:15.758Z,65.79
2022-08-28T19:13:21.800Z,65.85
2022-08-28T19:18:29.954Z,65.87
2022-08-28T19:23:36.329Z,65.98
2022-08-28T19:28:43.695Z,65.84
2022-08-28T19:33:49.791Z,65.68
2022-08-28T19:38:55.701Z,65.21
2022-08-28T19:44:01.685Z,64.67
2022-08-28T19:49:10.353Z,65.28
2022-08-28T19:54:16.251Z,65.19
2022-08-28T19:59:26.942Z,64.93
2022-08-28T20:04:33.274Z,64.77
2022-08-28T20:09:39.390Z,64.64
2022-08-28T20:14:45.800Z,64.81
2022-08-28T20:19:51.874Z,64.99
2022-08-28T20:24:57.766Z,65.04
2022-08-28T20:30:10.422Z,65.25
2022-08-28T20:35:17.651Z,65.62
2022-08-28T20:40:28.395Z,65.84
2022-08-28T20:45:34.513Z,66.34
2022-08-28T20:50:40.247Z,67.13
2022-08-28T20:55:46.876Z,67.60
2022-08-28T21:00:53.496Z,68.24
2022-08-28T21:06:06.229Z,68.66
2022-08-28T21:11:12.212Z,69.33
2022-08-28T21:16:18.562Z,69.99
2022-08-28T21:21:24.806Z,70.55
2022-08-28T21:26:30.886Z,70.79
2022-08-28T21:31:37.063Z,70.92
2022-08-28T21:36:50.115Z,71.10
2022-08-28T21:41:57.300Z,71.41
2022-08-28T21:47:03.109Z,72.22
2022-08-28T21:52:09.092Z,72.39
2022-08-28T21:57:15.926Z,72.25
2022-08-28T22:02:21.967Z,72.29
2022-08-28T22:07:27.899Z,71.34
2022-08-28T22:12:34.301Z,71.03
2022-08-28T22:17:40.418Z,70.62
2022-08-28T22:23:05.341Z,70.40
2022-08-28T22:28:11.750Z,70.51
2022-08-28T22:33:17.801Z,70.64
2022-08-28T22:38:25.264Z,70.91
2022-08-28T22:43:31.462Z,70.89
2022-08-28T22:48:37.866Z,71.42
2022-08-28T22:53:44.917Z,72.07
2022-08-28T22:58:51.053Z,73.01
2022-08-28T23:03:57.818Z,73.85
2022-08-28T23:09:03.897Z,74.11
2022-08-28T23:14:10.024Z,75.00
2022-08-28T23:19:16.604Z,75.42
2022-08-28T23:24:22.754Z,75.64
2022-08-28T23:29:29.423Z,76.48
2022-08-28T23:34:36.566Z,76.88
2022-08-28T23:39:43.739Z,78.31
2022-08-28T23:44:49.675Z,79.17
2022-08-28T23:49:55.878Z,80.26
2022-08-28T23:55:02.132Z,80.49
